createdAt,value
2019-02-09T00:02:11.315Z,97644.66
2019-02-09T00:04:41.883Z,97640.69
2019-02-09T00:07:12.451Z,97639.52
2019-02-09T00:09:43.241Z,97641.67
2019-02-09T00:12:13.937Z,97637.08
2019-02-09T00:14:44.742Z,97635.69
2019-02-09T00:17:15.698Z,97643.09
2019-02-09T00:19:46.467Z,97646.75
2019-02-09T00:22:17.305Z,97642.23
2019-02-09T00:24:48.588Z,97633.19
2019-02-09T00:27:19.253Z,97632.91
2019-02-09T00:29:50.045Z,97624.67
2019-02-09T00:32:20.561Z,97621.85
2019-02-09T00:34:51.332Z,97625.86
2019-02-09T00:37:21.860Z,97623.13
2019-02-09T00:39:52.376Z,97616.05
2019-02-09T00:42:22.946Z,97616.13
2019-02-09T00:44:53.440Z,97615.63
2019-02-09T00:47:23.946Z,97612.60
2019-02-09T00:49:54.610Z,97608.98
2019-02-09T00:52:25.407Z,97608.78
2019-02-09T00:54:55.924Z,97607.92
2019-02-09T00:57:26.435Z,97596.78
2019-02-09T00:59:56.984Z,97591.69
2019-02-09T01:02:27.519Z,97591.18
2019-02-09T01:04:58.054Z,97581.61
2019-02-09T01:07:28.567Z,97578.34
2019-02-09T01:09:59.612Z,97564.66
2019-02-09T01:12:30.363Z,97573.96
2019-02-09T01:15:00.923Z,97563.73
2019-02-09T01:17:32.700Z,97557.41
2019-02-09T01:20:03.522Z,97547.53
2019-02-09T01:22:34.486Z,97543.92
2019-02-09T01:25:06.021Z,97529.53
2019-02-09T01:27:36.668Z,97530.78
2019-02-09T01:30:11.728Z,97523.87
2019-02-09T01:32:42.774Z,97521.04
2019-02-09T01:35:14.706Z,97520.14
2019-02-09T01:37:45.894Z,97513.28
2019-02-09T01:40:20.047Z,97516.23
2019-02-09T01:42:50.720Z,97509.70
2019-02-09T01:45:24.547Z,97510.95
2019-02-09T01:47:55.528Z,97511.70
2019-02-09T01:50:27.508Z,97510.72
2019-02-09T01:52:58.036Z,97507.09
2019-02-09T01:55:29.249Z,97498.27
2019-02-09T01:58:01.262Z,97498.50
2019-02-09T02:00:34.760Z,97482.36
2019-02-09T02:03:05.583Z,97470.66
2019-02-09T02:05:36.780Z,97460.25
2019-02-09T02:08:07.816Z,97456.55
2019-02-09T02:10:39.670Z,97454.55
2019-02-09T02:13:11.649Z,97442.39
2019-02-09T02:15:43.144Z,97443.62
2019-02-09T02:18:13.745Z,97445.24
2019-02-09T02:20:44.517Z,97437.73
2019-02-09T02:23:15.041Z,97438.88
2019-02-09T02:25:45.869Z,97432.00
2019-02-09T02:28:16.519Z,97427.56
2019-02-09T02:30:47.280Z,97438.58
2019-02-09T02:33:17.774Z,97426.41
2019-02-09T02:35:48.735Z,97432.22
2019-02-09T02:38:19.508Z,97433.84
2019-02-09T02:40:50.104Z,97427.80
2019-02-09T02:43:20.739Z,97436.27
2019-02-09T02:45:51.359Z,97442.25
2019-02-09T02:48:21.848Z,97447.66
2019-02-09T02:50:52.548Z,97444.09
2019-02-09T02:53:23.049Z,97440.36
2019-02-09T02:55:53.574Z,97436.11
2019-02-09T02:58:24.137Z,97434.50
2019-02-09T03:00:55.241Z,97432.00
2019-02-09T03:03:25.748Z,97435.45
2019-02-09T03:05:56.539Z,97444.88
2019-02-09T03:08:27.035Z,97423.03
2019-02-09T03:10:57.540Z,97424.61
2019-02-09T03:13:28.019Z,97432.74
2019-02-09T03:15:58.827Z,97442.34
2019-02-09T03:18:29.584Z,97448.31
2019-02-09T03:21:00.087Z,97451.48
2019-02-09T03:23:30.645Z,97453.28
2019-02-09T03:26:01.137Z,97458.02
2019-02-09T03:28:32.025Z,97456.00
2019-02-09T03:31:02.593Z,97463.94
2019-02-09T03:33:33.145Z,97457.92
2019-02-09T03:36:03.677Z,97456.65
2019-02-09T03:38:34.470Z,97464.51
2019-02-09T03:41:05.017Z,97475.45
2019-02-09T03:43:35.779Z,97476.30
2019-02-09T03:46:06.922Z,97479.95
2019-02-09T03:48:37.672Z,97468.23
2019-02-09T03:51:08.233Z,97481.66
2019-02-09T03:53:39.014Z,97477.59
2019-02-09T03:56:09.712Z,97488.84
2019-02-09T03:58:40.912Z,97492.03
2019-02-09T04:01:11.660Z,97486.95
2019-02-09T04:03:42.818Z,97493.62
2019-02-09T04:06:13.333Z,97496.81
2019-02-09T04:08:44.046Z,97497.95
2019-02-09T04:11:14.706Z,97501.64
2019-02-09T04:13:45.192Z,97512.42
2019-02-09T04:16:15.763Z,97518.97
2019-02-09T04:18:46.265Z,97521.57
2019-02-09T04:21:16.912Z,97509.42
2019-02-09T04:23:47.707Z,97506.39
2019-02-09T04:26:18.240Z,97510.56
2019-02-09T04:28:48.990Z,97522.18
2019-02-09T04:31:19.488Z,97484.13
2019-02-09T04:33:50.087Z,97506.95
2019-02-09T04:36:20.762Z,97509.75
2019-02-09T04:38:51.255Z,97506.86
2019-02-09T04:41:21.974Z,97503.19
2019-02-09T04:43:52.743Z,97513.56
2019-02-09T04:46:23.245Z,97509.65
2019-02-09T04:48:53.766Z,97508.23
2019-02-09T04:51:24.277Z,97510.27
2019-02-09T04:53:54.994Z,97520.82
2019-02-09T04:56:25.845Z,97520.05
2019-02-09T04:58:56.337Z,97515.34
2019-02-09T05:01:26.832Z,97516.35
2019-02-09T05:03:57.344Z,97513.66
2019-02-09T05:06:28.096Z,97513.47
2019-02-09T05:08:58.970Z,97504.78
2019-02-09T05:11:29.738Z,97515.67
2019-02-09T05:14:00.294Z,97518.18
2019-02-09T05:16:30.847Z,97532.00
2019-02-09T05:19:01.366Z,97527.53
2019-02-09T05:21:33.137Z,97519.39
2019-02-09T05:24:03.900Z,97520.10
2019-02-09T05:26:34.939Z,97516.23
2019-02-09T05:29:05.532Z,97520.33
2019-02-09T05:31:36.314Z,97529.35
2019-02-09T05:34:06.988Z,97524.17
2019-02-09T05:36:37.494Z,97536.44
2019-02-09T05:39:09.600Z,97531.45
2019-02-09T05:41:40.369Z,97539.86
2019-02-09T05:44:10.910Z,97542.39
2019-02-09T05:46:41.400Z,97542.61
2019-02-09T05:49:12.023Z,97558.73
2019-02-09T05:51:42.866Z,97569.20
2019-02-09T05:54:13.390Z,97570.17
2019-02-09T05:56:44.179Z,97573.36
2019-02-09T05:59:14.895Z,97582.51
2019-02-09T06:01:45.682Z,97580.83
2019-02-09T06:04:16.171Z,97581.02
2019-02-09T06:06:46.995Z,97587.28
2019-02-09T06:09:17.523Z,97598.45
2019-02-09T06:11:48.279Z,97607.12
2019-02-09T06:14:18.960Z,97603.69
2019-02-09T06:16:49.456Z,97600.87
2019-02-09T06:19:20.055Z,97600.09
2019-02-09T06:21:50.594Z,97607.66
2019-02-09T06:24:21.111Z,97607.15
2019-02-09T06:26:51.906Z,97611.78
2019-02-09T06:29:22.425Z,97611.83
2019-02-09T06:31:53.121Z,97613.84
2019-02-09T06:34:24.065Z,97599.14
2019-02-09T06:36:54.827Z,97618.69
2019-02-09T06:39:25.392Z,97617.33
2019-02-09T06:41:55.938Z,97626.44
2019-02-09T06:44:26.411Z,97632.56
2019-02-09T06:46:57.231Z,97627.31
2019-02-09T06:49:28.002Z,97627.19
2019-02-09T06:51:58.557Z,97632.72
2019-02-09T06:54:29.116Z,97629.09
2019-02-09T06:56:59.912Z,97634.74
2019-02-09T06:59:30.416Z,97641.02
2019-02-09T07:02:01.223Z,97642.80
2019-02-09T07:04:33.131Z,97658.96
2019-02-09T07:07:04.132Z,97662.20
2019-02-09T07:09:35.202Z,97665.64
2019-02-09T07:12:06.346Z,97665.34
2019-02-09T07:14:37.249Z,97672.38
2019-02-09T07:17:07.752Z,97684.39
2019-02-09T07:19:38.412Z,97691.98
2019-02-09T07:22:09.110Z,97695.14
2019-02-09T07:24:39.679Z,97703.45
2019-02-09T07:27:10.467Z,97709.69
2019-02-09T07:29:41.373Z,97720.77
2019-02-09T07:32:12.288Z,97714.81
2019-02-09T07:34:43.055Z,97709.08
2019-02-09T07:37:13.560Z,97705.11
2019-02-09T07:39:44.364Z,97698.11
2019-02-09T07:42:15.108Z,97695.35
2019-02-09T07:44:45.881Z,97698.47
2019-02-09T07:47:16.440Z,97703.72
2019-02-09T07:49:47.330Z,97708.77
2019-02-09T07:52:18.170Z,97715.50
2019-02-09T07:54:49.318Z,97715.30
2019-02-09T07:57:20.193Z,97718.97
2019-02-09T07:59:50.719Z,97720.96
2019-02-09T08:02:21.221Z,97729.53
2019-02-09T08:04:51.761Z,97732.88
2019-02-09T08:07:22.297Z,97731.86
2019-02-09T08:09:53.143Z,97732.63
2019-02-09T08:12:23.668Z,97740.08
2019-02-09T08:14:54.320Z,97741.49
2019-02-09T08:17:25.109Z,97739.91
2019-02-09T08:19:55.648Z,97738.28
2019-02-09T08:22:26.206Z,97745.22
2019-02-09T08:24:56.725Z,97745.84
2019-02-09T08:27:27.391Z,97747.61
2019-02-09T08:29:57.898Z,97757.39
2019-02-09T08:32:28.458Z,97758.50
2019-02-09T08:34:59.271Z,97769.92
2019-02-09T08:37:29.819Z,97767.32
2019-02-09T08:40:00.352Z,97767.20
2019-02-09T08:42:30.898Z,97768.99
2019-02-09T08:45:01.451Z,97775.53
2019-02-09T08:47:33.493Z,97778.41
2019-02-09T08:50:04.757Z,97774.80
2019-02-09T08:52:35.527Z,97786.80
2019-02-09T08:55:06.848Z,97792.91
2019-02-09T08:57:37.604Z,97791.84
2019-02-09T09:00:12.151Z,97788.58
2019-02-09T09:02:42.963Z,97789.27
2019-02-09T09:05:14.164Z,97796.50
2019-02-09T09:07:44.986Z,97791.02
2019-02-09T09:10:16.523Z,97802.89
2019-02-09T09:12:47.328Z,97801.78
2019-02-09T09:15:22.342Z,97797.08
2019-02-09T09:17:52.989Z,97788.39
2019-02-09T09:20:27.587Z,97792.77
2019-02-09T09:22:58.454Z,97793.44
2019-02-09T09:25:29.299Z,97796.70
2019-02-09T09:27:59.956Z,97795.88
2019-02-09T09:30:31.110Z,97799.16
2019-02-09T09:33:01.719Z,97792.20
2019-02-09T09:35:33.661Z,97815.58
2019-02-09T09:38:05.028Z,97809.09
2019-02-09T09:40:39.168Z,97811.61
2019-02-09T09:43:10.095Z,97812.80
2019-02-09T09:45:41.225Z,97810.41
2019-02-09T09:48:14.597Z,97816.14
2019-02-09T09:50:45.873Z,97817.83
2019-02-09T09:53:16.533Z,97816.41
2019-02-09T09:55:47.320Z,97821.27
2019-02-09T09:58:17.911Z,97824.26
2019-02-09T10:00:48.976Z,97825.79
2019-02-09T10:03:19.624Z,97834.34
2019-02-09T10:05:50.605Z,97829.70
2019-02-09T10:08:21.420Z,97831.98
2019-02-09T10:10:52.001Z,97837.70
2019-02-09T10:13:22.553Z,97847.59
2019-02-09T10:15:53.335Z,97853.29
2019-02-09T10:18:24.379Z,97849.94
2019-02-09T10:20:55.028Z,97850.59
2019-02-09T10:23:25.677Z,97859.17
2019-02-09T10:25:57.612Z,97856.97
2019-02-09T10:28:28.174Z,97871.95
2019-02-09T10:30:58.710Z,97862.98
2019-02-09T10:33:29.566Z,97868.08
2019-02-09T10:36:00.070Z,97870.45
2019-02-09T10:38:30.641Z,97865.44
2019-02-09T10:41:03.029Z,97860.90
2019-02-09T10:43:34.811Z,97852.97
2019-02-09T10:46:05.613Z,97854.58
2019-02-09T10:48:36.734Z,97852.34
2019-02-09T10:51:07.494Z,97845.61
2019-02-09T10:53:38.076Z,97845.61
2019-02-09T10:56:08.622Z,97855.38
2019-02-09T10:58:39.836Z,97854.74
2019-02-09T11:01:16.176Z,97860.04
2019-02-09T11:03:47.089Z,97868.38
2019-02-09T11:06:17.636Z,97874.11
2019-02-09T11:08:48.511Z,97897.69
2019-02-09T11:11:19.057Z,97900.52
2019-02-09T11:13:49.731Z,97897.33
2019-02-09T11:16:20.333Z,97890.64
2019-02-09T11:18:50.874Z,97890.04
2019-02-09T11:21:22.120Z,97899.88
2019-02-09T11:23:52.928Z,97882.47
2019-02-09T11:26:23.615Z,97874.06
2019-02-09T11:28:54.443Z,97872.94
2019-02-09T11:31:24.991Z,97879.86
2019-02-09T11:33:55.664Z,97870.06
2019-02-09T11:36:26.573Z,97857.59
2019-02-09T11:38:57.445Z,97863.59
2019-02-09T11:41:28.189Z,97853.78
2019-02-09T11:43:58.814Z,97858.70
2019-02-09T11:46:29.382Z,97857.56
2019-02-09T11:48:59.995Z,97867.04
2019-02-09T11:51:30.630Z,97874.30
2019-02-09T11:54:01.360Z,97882.60
2019-02-09T11:56:33.463Z,97883.36
2019-02-09T11:59:03.971Z,97894.06
2019-02-09T12:01:36.141Z,97879.04
2019-02-09T12:04:07.287Z,97880.31
2019-02-09T12:06:38.032Z,97874.39
2019-02-09T12:09:10.837Z,97870.17
2019-02-09T12:11:42.200Z,97877.80
2019-02-09T12:14:12.773Z,97868.62
2019-02-09T12:16:44.703Z,97871.90
2019-02-09T12:19:15.255Z,97863.03
2019-02-09T12:21:46.145Z,97859.00
2019-02-09T12:24:16.738Z,97861.95
2019-02-09T12:26:47.963Z,97861.94
2019-02-09T12:29:18.751Z,97839.91
2019-02-09T12:31:49.891Z,97860.81
2019-02-09T12:34:20.820Z,97860.05
2019-02-09T12:36:51.633Z,97867.18
2019-02-09T12:39:22.223Z,97861.05
2019-02-09T12:41:53.084Z,97863.20
2019-02-09T12:44:23.660Z,97859.44
2019-02-09T12:46:54.450Z,97857.40
2019-02-09T12:49:25.027Z,97845.97
2019-02-09T12:51:55.751Z,97837.66
2019-02-09T12:54:26.336Z,97835.13
2019-02-09T12:56:56.965Z,97836.52
2019-02-09T12:59:27.679Z,97825.48
2019-02-09T13:01:58.227Z,97823.54
2019-02-09T13:04:28.916Z,97818.95
2019-02-09T13:06:59.539Z,97819.56
2019-02-09T13:09:30.044Z,97809.34
2019-02-09T13:12:00.779Z,97807.98
2019-02-09T13:14:31.586Z,97806.50
2019-02-09T13:17:02.146Z,97798.81
2019-02-09T13:19:34.002Z,97798.63
2019-02-09T13:22:04.801Z,97804.60
2019-02-09T13:24:35.343Z,97804.64
2019-02-09T13:27:06.003Z,97815.48
2019-02-09T13:29:36.833Z,97829.37
2019-02-09T13:32:07.686Z,97839.69
2019-02-09T13:34:38.234Z,97832.45
2019-02-09T13:37:08.994Z,97823.17
2019-02-09T13:39:39.784Z,97833.66
2019-02-09T13:42:10.336Z,97814.53
2019-02-09T13:44:41.236Z,97814.89
2019-02-09T13:47:11.959Z,97818.95
2019-02-09T13:49:43.158Z,97828.92
2019-02-09T13:52:14.090Z,97820.67
2019-02-09T13:54:45.004Z,97815.53
2019-02-09T13:57:15.838Z,97813.57
2019-02-09T13:59:48.319Z,97814.08
2019-02-09T14:02:18.886Z,97818.61
2019-02-09T14:04:50.108Z,97822.30
2019-02-09T14:07:20.929Z,97832.22
2019-02-09T14:09:51.837Z,97828.08
2019-02-09T14:12:22.386Z,97827.65
2019-02-09T14:14:53.495Z,97830.03
2019-02-09T14:17:24.084Z,97827.07
2019-02-09T14:19:54.827Z,97837.34
2019-02-09T14:22:25.397Z,97830.59
2019-02-09T14:24:56.056Z,97820.09
2019-02-09T14:27:29.222Z,97815.65
2019-02-09T14:29:59.877Z,97818.84
2019-02-09T14:32:30.413Z,97816.94
2019-02-09T14:35:00.999Z,97820.47
2019-02-09T14:37:31.531Z,97821.84
2019-02-09T14:40:02.100Z,97835.70
2019-02-09T14:42:32.877Z,97840.38
2019-02-09T14:45:03.406Z,97835.39
2019-02-09T14:47:34.324Z,97838.98
2019-02-09T14:50:11.074Z,97831.49
2019-02-09T14:52:39.211Z,97848.91
2019-02-09T14:55:13.169Z,97852.17
2019-02-09T14:57:44.045Z,97847.41
2019-02-09T15:00:19.557Z,97850.90
2019-02-09T15:02:53.879Z,97834.34
2019-02-09T15:05:22.564Z,97842.52
2019-02-09T15:07:53.560Z,97842.73
2019-02-09T15:10:24.334Z,97840.60
2019-02-09T15:12:55.179Z,97831.27
2019-02-09T15:15:39.364Z,97844.41
2019-02-09T15:18:11.009Z,97837.06
2019-02-09T15:20:46.429Z,97838.98
2019-02-09T15:23:17.263Z,97842.95
2019-02-09T15:25:48.424Z,97836.59
2019-02-09T15:28:19.121Z,97840.67
2019-02-09T15:30:50.303Z,97835.70
2019-02-09T15:33:21.070Z,97830.35
2019-02-09T15:35:51.833Z,97833.23
2019-02-09T15:38:22.395Z,97830.83
2019-02-09T15:40:53.240Z,97837.37
2019-02-09T15:43:24.082Z,97839.89
2019-02-09T15:45:54.666Z,97839.47
2019-02-09T15:48:25.171Z,97840.64
2019-02-09T15:50:56.110Z,97847.28
2019-02-09T15:53:26.667Z,97853.84
2019-02-09T15:55:57.268Z,97856.73
2019-02-09T15:58:28.109Z,97862.00
2019-02-09T16:00:58.708Z,97861.08
2019-02-09T16:03:30.373Z,97868.42
2019-02-09T16:06:01.183Z,97870.22
2019-02-09T16:08:32.009Z,97873.64
2019-02-09T16:11:02.594Z,97866.25
2019-02-09T16:13:34.584Z,97874.16
2019-02-09T16:16:06.720Z,97876.28
2019-02-09T16:18:37.598Z,97879.02
2019-02-09T16:21:08.218Z,97887.03
2019-02-09T16:23:39.074Z,97891.06
2019-02-09T16:26:09.601Z,97891.99
2019-02-09T16:28:40.462Z,97902.40
2019-02-09T16:31:11.235Z,97897.25
2019-02-09T16:33:42.518Z,97894.88
2019-02-09T16:36:13.129Z,97890.93
2019-02-09T16:38:43.737Z,97888.74
2019-02-09T16:41:14.398Z,97886.53
2019-02-09T16:43:45.217Z,97888.59
2019-02-09T16:46:15.884Z,97891.80
2019-02-09T16:48:46.499Z,97897.37
2019-02-09T16:51:17.242Z,97900.99
2019-02-09T16:53:47.759Z,97904.49
2019-02-09T16:56:18.311Z,97900.98
2019-02-09T16:58:49.205Z,97889.16
2019-02-09T17:01:22.989Z,97897.90
2019-02-09T17:03:53.815Z,97897.31
2019-02-09T17:06:24.545Z,97900.94
2019-02-09T17:08:55.203Z,97904.36
2019-02-09T17:11:25.814Z,97897.78
2019-02-09T17:13:56.498Z,97894.33
2019-02-09T17:16:27.308Z,97903.23
2019-02-09T17:18:58.241Z,97900.27
2019-02-09T17:21:28.850Z,97906.01
2019-02-09T17:23:59.455Z,97903.72
2019-02-09T17:26:30.103Z,97905.16
2019-02-09T17:29:00.740Z,97908.38
2019-02-09T17:31:31.296Z,97913.15
2019-02-09T17:34:01.829Z,97920.73
2019-02-09T17:36:32.430Z,97919.43
2019-02-09T17:39:04.262Z,97917.73
2019-02-09T17:41:34.862Z,97915.69
2019-02-09T17:44:05.738Z,97923.86
2019-02-09T17:46:36.602Z,97924.51
2019-02-09T17:49:07.308Z,97923.03
2019-02-09T17:51:38.479Z,97929.11
2019-02-09T17:54:09.393Z,97932.08
2019-02-09T17:56:39.978Z,97930.27
2019-02-09T17:59:10.582Z,97934.73
2019-02-09T18:01:41.435Z,97934.88
2019-02-09T18:04:12.335Z,97934.41
2019-02-09T18:06:42.993Z,97931.83
2019-02-09T18:09:13.677Z,97929.85
2019-02-09T18:11:44.603Z,97931.21
2019-02-09T18:14:15.318Z,97927.05
2019-02-09T18:16:45.881Z,97925.69
2019-02-09T18:19:16.434Z,97917.98
2019-02-09T18:21:48.330Z,97924.74
2019-02-09T18:24:18.886Z,97920.75
2019-02-09T18:26:49.750Z,97930.25
2019-02-09T18:29:20.570Z,97927.78
2019-02-09T18:31:51.391Z,97929.97
2019-02-09T18:34:21.978Z,97924.80
2019-02-09T18:36:52.700Z,97936.53
2019-02-09T18:39:23.397Z,97939.20
2019-02-09T18:41:53.989Z,97934.55
2019-02-09T18:44:24.624Z,97936.46
2019-02-09T18:46:55.504Z,97935.08
2019-02-09T18:49:26.038Z,97935.23
2019-02-09T18:51:56.754Z,97931.30
2019-02-09T18:54:27.498Z,97927.92
2019-02-09T18:56:58.092Z,97922.51
2019-02-09T18:59:28.768Z,97916.94
2019-02-09T19:01:59.699Z,97921.40
2019-02-09T19:04:30.444Z,97913.34
2019-02-09T19:07:01.136Z,97910.53
2019-02-09T19:09:31.681Z,97918.39
2019-02-09T19:12:02.497Z,97917.72
2019-02-09T19:14:34.276Z,97923.27
2019-02-09T19:17:04.953Z,97915.97
2019-02-09T19:19:35.773Z,97920.55
2019-02-09T19:22:06.814Z,97917.35
2019-02-09T19:24:37.690Z,97921.75
2019-02-09T19:27:08.614Z,97917.00
2019-02-09T19:29:39.245Z,97919.25
2019-02-09T19:32:09.841Z,97915.66
2019-02-09T19:34:40.671Z,97913.98
2019-02-09T19:37:11.530Z,97915.88
2019-02-09T19:39:42.700Z,97922.30
2019-02-09T19:42:13.557Z,97924.77
2019-02-09T19:44:44.673Z,97929.61
2019-02-09T19:47:15.292Z,97929.66
2019-02-09T19:49:45.870Z,97933.92
2019-02-09T19:52:16.652Z,97942.14
2019-02-09T19:54:47.480Z,97936.52
2019-02-09T19:57:18.120Z,97936.98
2019-02-09T19:59:48.924Z,97927.41
2019-02-09T20:02:19.688Z,97922.33
2019-02-09T20:04:50.511Z,97924.89
2019-02-09T20:07:21.125Z,97920.68
2019-02-09T20:09:51.933Z,97925.84
2019-02-09T20:12:22.653Z,97915.02
2019-02-09T20:14:53.589Z,97909.08
2019-02-09T20:17:24.179Z,97902.19
2019-02-09T20:19:54.723Z,97918.27
2019-02-09T20:22:25.594Z,97921.77
2019-02-09T20:24:56.191Z,97926.22
2019-02-09T20:27:26.816Z,97928.33
2019-02-09T20:29:57.660Z,97923.41
2019-02-09T20:32:28.289Z,97928.48
2019-02-09T20:34:58.872Z,97924.61
2019-02-09T20:37:29.637Z,97922.06
2019-02-09T20:40:00.558Z,97919.47
2019-02-09T20:42:31.159Z,97919.31
2019-02-09T20:45:01.726Z,97922.06
2019-02-09T20:47:32.426Z,97925.12
2019-02-09T20:50:02.999Z,97925.48
2019-02-09T20:52:35.122Z,97927.30
2019-02-09T20:55:06.512Z,97937.22
2019-02-09T20:57:37.550Z,97941.03
2019-02-09T21:00:18.083Z,97939.84
2019-02-09T21:02:44.946Z,97936.75
2019-02-09T21:05:17.277Z,97939.28
2019-02-09T21:07:48.073Z,97943.17
2019-02-09T21:10:24.368Z,97942.89
2019-02-09T21:12:54.948Z,97945.17
2019-02-09T21:15:27.328Z,97943.61
2019-02-09T21:17:58.031Z,97939.20
2019-02-09T21:20:28.822Z,97934.27
2019-02-09T21:22:59.383Z,97932.14
2019-02-09T21:25:32.602Z,97932.16
2019-02-09T21:28:03.276Z,97929.94
2019-02-09T21:30:35.047Z,97932.82
2019-02-09T21:33:06.540Z,97934.68
2019-02-09T21:35:43.769Z,97941.23
2019-02-09T21:38:09.553Z,97936.95
2019-02-09T21:40:40.226Z,97933.81
2019-02-09T21:43:11.082Z,97928.86
2019-02-09T21:45:45.235Z,97923.84
2019-02-09T21:48:14.352Z,97924.67
2019-02-09T21:50:45.027Z,97922.99
2019-02-09T21:53:15.934Z,97914.28
2019-02-09T21:55:46.857Z,97912.60
2019-02-09T21:58:18.453Z,97900.80
2019-02-09T22:00:49.065Z,97897.52
2019-02-09T22:03:19.758Z,97894.63
2019-02-09T22:05:52.131Z,97891.20
2019-02-09T22:08:22.937Z,97882.09
2019-02-09T22:10:54.239Z,97887.89
2019-02-09T22:13:24.834Z,97886.66
2019-02-09T22:15:55.460Z,97878.47
2019-02-09T22:18:26.067Z,97878.88
2019-02-09T22:20:56.925Z,97886.19
2019-02-09T22:23:27.514Z,97893.77
2019-02-09T22:25:58.237Z,97894.07
2019-02-09T22:28:28.894Z,97892.00
2019-02-09T22:30:59.762Z,97883.07
2019-02-09T22:33:30.551Z,97878.46
2019-02-09T22:36:01.199Z,97884.73
2019-02-09T22:38:32.139Z,97877.89
2019-02-09T22:41:03.086Z,97880.66
2019-02-09T22:43:35.110Z,97881.67
2019-02-09T22:46:05.904Z,97884.05
2019-02-09T22:48:37.052Z,97870.75
2019-02-09T22:51:07.854Z,97880.36
2019-02-09T22:53:38.679Z,97883.23
2019-02-09T22:56:09.249Z,97886.02
2019-02-09T22:58:40.074Z,97884.84
2019-02-09T23:01:46.879Z,97889.22
2019-02-09T23:05:28.049Z,97891.30
2019-02-09T23:07:58.585Z,97883.06
2019-02-09T23:10:29.117Z,97882.64
2019-02-09T23:12:59.899Z,97883.74
2019-02-09T23:15:30.481Z,97878.91
2019-02-09T23:18:01.018Z,97878.22
2019-02-09T23:20:31.611Z,97872.84
2019-02-09T23:23:02.154Z,97869.48
2019-02-09T23:25:33.008Z,97871.87
2019-02-09T23:28:03.853Z,97878.95
2019-02-09T23:30:35.250Z,97880.27
2019-02-09T23:33:05.931Z,97872.50
2019-02-09T23:35:36.725Z,97859.37
2019-02-09T23:38:07.299Z,97858.49
2019-02-09T23:40:38.130Z,97868.70
2019-02-09T23:43:09.011Z,97862.67
2019-02-09T23:45:39.630Z,97847.48
2019-02-09T23:48:10.318Z,97847.77
2019-02-09T23:50:41.201Z,97844.27
2019-02-09T23:53:11.756Z,97845.52
2019-02-09T23:55:42.402Z,97841.15
2019-02-09T23:58:13.041Z,97838.63
